createdAt,value
2022-08-30T00:01:05.169Z,98827.63
2022-08-30T00:03:45.742Z,98827.69
2022-08-30T00:06:14.891Z,98816.16
2022-08-30T00:08:42.994Z,98817.53
2022-08-30T00:11:13.622Z,98810.81
2022-08-30T00:13:43.320Z,98816.84
2022-08-30T00:16:10.514Z,98816.66
2022-08-30T00:18:37.000Z,98819.47
2022-08-30T00:21:05.183Z,98820.72
2022-08-30T00:23:32.453Z,98828.97
2022-08-30T00:25:59.535Z,98841.31
2022-08-30T00:28:25.961Z,98829.00
2022-08-30T00:30:52.484Z,98838.44
2022-08-30T00:33:19.096Z,98835.19
2022-08-30T00:35:45.606Z,98829.91
2022-08-30T00:38:13.549Z,98826.88
2022-08-30T00:40:44.132Z,98824.88
2022-08-30T00:43:17.964Z,98829.69
2022-08-30T00:45:46.780Z,98824.22
2022-08-30T00:48:13.389Z,98827.28
2022-08-30T00:50:51.737Z,98827.84
2022-08-30T00:53:22.776Z,98826.38
2022-08-30T00:55:50.389Z,98827.25
2022-08-30T00:58:21.735Z,98833.47
2022-08-30T01:00:55.010Z,98834.97
2022-08-30T01:03:22.308Z,98830.09
2022-08-30T01:05:51.493Z,98831.34
2022-08-30T01:08:21.422Z,98829.78
2022-08-30T01:10:48.712Z,98831.53
2022-08-30T01:13:15.992Z,98834.63
2022-08-30T01:15:43.976Z,98837.47
2022-08-30T01:18:11.514Z,98838.56
2022-08-30T01:21:16.890Z,98838.06
2022-08-30T01:23:45.718Z,98829.56
2022-08-30T01:26:15.960Z,98831.84
2022-08-30T01:28:45.114Z,98829.63
2022-08-30T01:31:11.654Z,98844.34
2022-08-30T01:33:38.458Z,98833.94
2022-08-30T01:36:07.774Z,98834.72
2022-08-30T01:38:43.741Z,98826.13
2022-08-30T01:41:20.826Z,98827.44
2022-08-30T01:43:48.944Z,98822.28
2022-08-30T01:46:17.863Z,98818.22
2022-08-30T01:48:50.331Z,98825.53
2022-08-30T01:51:22.280Z,98830.66
2022-08-30T01:53:49.020Z,98828.38
2022-08-30T01:56:15.697Z,98824.44
2022-08-30T01:58:43.477Z,98830.28
2022-08-30T02:01:14.233Z,98824.72
2022-08-30T02:03:43.869Z,98815.56
2022-08-30T02:06:13.722Z,98824.03
2022-08-30T02:08:40.995Z,98821.63
2022-08-30T02:11:09.436Z,98824.16
2022-08-30T02:13:40.068Z,98823.59
2022-08-30T02:16:08.881Z,98826.69
2022-08-30T02:18:36.361Z,98833.38
2022-08-30T02:21:03.375Z,98833.69
2022-08-30T02:23:29.899Z,98838.31
2022-08-30T02:25:56.500Z,98845.59
2022-08-30T02:28:23.051Z,98844.28
2022-08-30T02:30:52.027Z,98842.47
2022-08-30T02:33:19.158Z,98839.00
2022-08-30T02:35:45.777Z,98833.78
2022-08-30T02:38:12.566Z,98838.31
2022-08-30T02:40:39.370Z,98835.94
2022-08-30T02:43:05.965Z,98842.38
2022-08-30T02:45:32.642Z,98834.78
2022-08-30T02:47:59.175Z,98837.19
2022-08-30T02:50:25.759Z,98836.22
2022-08-30T02:52:52.806Z,98821.66
2022-08-30T02:55:21.183Z,98824.72
2022-08-30T02:57:47.768Z,98823.34
2022-08-30T03:00:17.809Z,98816.44
2022-08-30T03:02:44.387Z,98810.84
2022-08-30T03:05:12.939Z,98804.66
2022-08-30T03:07:40.391Z,98798.38
2022-08-30T03:10:07.719Z,98801.06
2022-08-30T03:12:34.514Z,98789.84
2022-08-30T03:15:01.381Z,98799.06
2022-08-30T03:17:27.825Z,98796.94
2022-08-30T03:19:54.273Z,98804.88
2022-08-30T03:22:20.743Z,98812.97
2022-08-30T03:24:47.361Z,98814.94
2022-08-30T03:27:16.273Z,98804.03
2022-08-30T03:29:42.816Z,98799.44
2022-08-30T03:32:09.377Z,98797.63
2022-08-30T03:34:35.970Z,98796.78
2022-08-30T03:37:02.508Z,98791.06
2022-08-30T03:39:28.944Z,98795.28
2022-08-30T03:41:55.400Z,98795.53
2022-08-30T03:44:21.954Z,98795.94
2022-08-30T03:46:49.565Z,98796.13
2022-08-30T03:49:16.516Z,98797.63
2022-08-30T03:51:43.358Z,98804.53
2022-08-30T03:54:10.120Z,98808.44
2022-08-30T03:56:37.053Z,98807.00
2022-08-30T03:59:04.001Z,98806.56
2022-08-30T04:01:30.513Z,98811.75
2022-08-30T04:03:57.493Z,98814.41
2022-08-30T04:06:24.424Z,98813.00
2022-08-30T04:08:51.134Z,98812.84
2022-08-30T04:11:17.878Z,98807.97
2022-08-30T04:13:44.552Z,98801.63
2022-08-30T04:16:11.224Z,98795.75
2022-08-30T04:18:37.742Z,98800.28
2022-08-30T04:21:04.833Z,98805.94
2022-08-30T04:23:31.304Z,98811.06
2022-08-30T04:25:57.807Z,98808.69
2022-08-30T04:28:24.299Z,98815.19
2022-08-30T04:30:50.762Z,98818.00
2022-08-30T04:33:18.102Z,98818.59
2022-08-30T04:35:47.197Z,98820.69
2022-08-30T04:38:15.331Z,98814.03
2022-08-30T04:40:47.172Z,98813.31
2022-08-30T04:43:14.253Z,98811.13
2022-08-30T04:45:41.801Z,98817.53
2022-08-30T04:48:08.800Z,98823.72
2022-08-30T04:50:35.234Z,98825.16
2022-08-30T04:53:01.882Z,98820.47
2022-08-30T04:55:28.441Z,98816.97
2022-08-30T04:57:54.993Z,98834.72
2022-08-30T05:00:21.612Z,98838.63
2022-08-30T05:02:48.660Z,98833.88
2022-08-30T05:05:34.338Z,98836.09
2022-08-30T05:08:01.078Z,98834.75
2022-08-30T05:10:27.732Z,98836.56
2022-08-30T05:12:54.916Z,98842.19
2022-08-30T05:15:22.361Z,98841.94
2022-08-30T05:17:49.135Z,98847.13
2022-08-30T05:20:16.056Z,98854.47
2022-08-30T05:22:53.316Z,98857.50
2022-08-30T05:25:24.384Z,98857.38
2022-08-30T05:27:51.661Z,98843.03
2022-08-30T05:30:19.478Z,98842.06
2022-08-30T05:32:46.236Z,98842.66
2022-08-30T05:35:14.391Z,98834.16
2022-08-30T05:37:41.493Z,98834.44
2022-08-30T05:40:11.159Z,98830.94
2022-08-30T05:42:38.626Z,98831.81
2022-08-30T05:45:05.772Z,98837.41
2022-08-30T05:47:32.806Z,98837.31
2022-08-30T05:49:59.379Z,98840.25
2022-08-30T05:52:26.045Z,98845.19
2022-08-30T05:54:55.041Z,98846.72
2022-08-30T05:57:22.401Z,98839.88
2022-08-30T05:59:48.870Z,98846.28
2022-08-30T06:02:15.385Z,98848.44
2022-08-30T06:04:41.875Z,98848.19
2022-08-30T06:07:11.721Z,98851.66
2022-08-30T06:09:41.108Z,98849.91
2022-08-30T06:12:07.974Z,98850.69
2022-08-30T06:14:34.406Z,98844.38
2022-08-30T06:17:00.860Z,98848.72
2022-08-30T06:19:27.331Z,98850.88
2022-08-30T06:21:53.790Z,98856.03
2022-08-30T06:24:27.794Z,98849.09
2022-08-30T06:27:02.791Z,98850.38
2022-08-30T06:29:29.253Z,98850.44
2022-08-30T06:31:57.369Z,98844.19
2022-08-30T06:34:24.030Z,98844.03
2022-08-30T06:36:50.501Z,98848.38
2022-08-30T06:39:17.030Z,98841.16
2022-08-30T06:41:43.572Z,98848.53
2022-08-30T06:44:10.271Z,98848.66
2022-08-30T06:46:38.551Z,98842.16
2022-08-30T06:49:06.866Z,98848.97
2022-08-30T06:51:39.708Z,98850.44
2022-08-30T06:54:09.193Z,98856.66
2022-08-30T06:56:37.947Z,98850.31
2022-08-30T06:59:05.215Z,98854.56
2022-08-30T07:01:32.172Z,98848.59
2022-08-30T07:04:01.031Z,98863.13
2022-08-30T07:06:29.172Z,98858.38
2022-08-30T07:08:56.621Z,98862.53
2022-08-30T07:11:30.468Z,98862.09
2022-08-30T07:13:57.657Z,98858.50
2022-08-30T07:16:24.430Z,98859.03
2022-08-30T07:18:51.163Z,98863.16
2022-08-30T07:21:21.453Z,98854.97
2022-08-30T07:23:53.628Z,98860.72
2022-08-30T07:26:23.956Z,98856.88
2022-08-30T07:28:55.998Z,98857.22
2022-08-30T07:31:23.760Z,98855.59
2022-08-30T07:33:50.332Z,98853.63
2022-08-30T07:36:17.723Z,98861.16
2022-08-30T07:38:49.240Z,98863.66
2022-08-30T07:41:21.283Z,98866.88
2022-08-30T07:43:47.941Z,98864.66
2022-08-30T07:46:14.708Z,98872.59
2022-08-30T07:48:41.401Z,98870.69
2022-08-30T07:51:17.590Z,98873.84
2022-08-30T07:53:44.104Z,98875.06
2022-08-30T07:56:11.138Z,98877.34
2022-08-30T07:58:37.970Z,98876.28
2022-08-30T08:01:06.322Z,98869.44
2022-08-30T08:03:33.785Z,98872.06
2022-08-30T08:06:02.951Z,98884.72
2022-08-30T08:08:29.912Z,98876.63
2022-08-30T08:10:56.721Z,98875.41
2022-08-30T08:13:23.582Z,98881.31
2022-08-30T08:15:55.291Z,98878.69
2022-08-30T08:18:22.033Z,98874.47
2022-08-30T08:20:48.555Z,98885.53
2022-08-30T08:23:17.461Z,98878.84
2022-08-30T08:25:44.008Z,98882.75
2022-08-30T08:28:10.553Z,98888.19
2022-08-30T08:30:37.696Z,98877.75
2022-08-30T08:33:05.584Z,98872.41
2022-08-30T08:35:32.839Z,98874.78
2022-08-30T08:37:59.760Z,98865.09
2022-08-30T08:40:27.792Z,98873.78
2022-08-30T08:42:58.466Z,98871.41
2022-08-30T08:45:41.846Z,98870.16
2022-08-30T08:48:32.092Z,98861.19
2022-08-30T08:51:34.083Z,98865.50
2022-08-30T08:54:39.374Z,98870.06
2022-08-30T08:57:11.265Z,98873.97
2022-08-30T08:59:39.060Z,98869.09
2022-08-30T09:02:25.692Z,98869.56
2022-08-30T09:04:58.460Z,98861.06
2022-08-30T09:07:29.731Z,98865.81
2022-08-30T09:09:57.898Z,98866.00
2022-08-30T09:12:24.372Z,98861.53
2022-08-30T09:14:58.725Z,98870.03
2022-08-30T09:17:25.662Z,98861.50
2022-08-30T09:19:52.492Z,98857.59
2022-08-30T09:22:46.784Z,98856.34
2022-08-30T09:25:13.273Z,98854.38
2022-08-30T09:27:45.364Z,98838.97
2022-08-30T09:30:25.072Z,98841.69
2022-08-30T09:32:57.163Z,98842.81
2022-08-30T09:35:34.493Z,98847.09
2022-08-30T09:38:20.163Z,98839.72
2022-08-30T09:41:02.494Z,98840.72
2022-08-30T09:43:34.446Z,98841.16
2022-08-30T09:46:01.172Z,98839.31
2022-08-30T09:48:45.490Z,98827.19
2022-08-30T09:51:12.478Z,98832.38
2022-08-30T09:54:18.295Z,98825.47
2022-08-30T09:56:48.251Z,98822.72
2022-08-30T09:59:52.268Z,98818.91
2022-08-30T10:02:37.030Z,98818.78
2022-08-30T10:05:09.565Z,98817.00
2022-08-30T10:08:06.097Z,98812.13
2022-08-30T10:10:53.980Z,98803.78
2022-08-30T10:13:29.801Z,98800.19
2022-08-30T10:16:05.945Z,98801.81
2022-08-30T10:18:49.840Z,98800.50
2022-08-30T10:21:43.715Z,98793.91
2022-08-30T10:24:13.735Z,98797.00
2022-08-30T10:26:57.395Z,98794.13
2022-08-30T10:29:31.807Z,98800.78
2022-08-30T10:32:11.386Z,98793.91
2022-08-30T10:34:48.625Z,98789.72
2022-08-30T10:37:29.013Z,98783.91
2022-08-30T10:40:41.703Z,98780.63
2022-08-30T10:43:17.078Z,98786.69
2022-08-30T10:45:48.951Z,98781.25
2022-08-30T10:48:32.494Z,98781.97
2022-08-30T10:51:04.806Z,98784.78
2022-08-30T10:53:37.085Z,98775.97
2022-08-30T10:56:08.805Z,98772.25
2022-08-30T10:58:38.407Z,98778.19
2022-08-30T11:01:43.324Z,98777.94
2022-08-30T11:04:40.400Z,98776.44
2022-08-30T11:07:14.670Z,98771.03
2022-08-30T11:09:59.205Z,98769.13
2022-08-30T11:12:32.033Z,98775.28
2022-08-30T11:14:59.454Z,98775.63
2022-08-30T11:17:29.157Z,98768.13
2022-08-30T11:19:58.693Z,98774.16
2022-08-30T11:22:38.822Z,98762.78
2022-08-30T11:25:38.691Z,98758.25
2022-08-30T11:28:06.305Z,98758.25
2022-08-30T11:30:32.743Z,98768.78
2022-08-30T11:33:29.941Z,98757.13
2022-08-30T11:35:56.661Z,98752.38
2022-08-30T11:38:26.114Z,98754.19
2022-08-30T11:40:55.364Z,98750.78
2022-08-30T11:43:33.850Z,98752.72
2022-08-30T11:46:24.142Z,98754.03
2022-08-30T11:49:00.487Z,98742.19
2022-08-30T11:51:40.644Z,98744.09
2022-08-30T11:54:25.471Z,98743.00
2022-08-30T11:56:54.857Z,98735.03
2022-08-30T11:59:31.909Z,98725.53
2022-08-30T12:02:00.183Z,98728.50
2022-08-30T12:04:43.922Z,98724.84
2022-08-30T12:07:10.946Z,98715.78
2022-08-30T12:09:37.807Z,98716.03
2022-08-30T12:12:04.587Z,98719.31
2022-08-30T12:14:33.632Z,98716.66
2022-08-30T12:17:20.998Z,98720.81
2022-08-30T12:19:50.528Z,98710.63
2022-08-30T12:22:18.741Z,98712.41
2022-08-30T12:24:51.701Z,98712.75
2022-08-30T12:27:32.810Z,98711.13
2022-08-30T12:30:08.233Z,98717.59
2022-08-30T12:32:43.948Z,98714.22
2022-08-30T12:35:20.385Z,98713.13
2022-08-30T12:38:00.513Z,98703.59
2022-08-30T12:40:30.977Z,98701.63
2022-08-30T12:43:00.516Z,98702.91
2022-08-30T12:45:44.933Z,98700.97
2022-08-30T12:48:19.820Z,98702.47
2022-08-30T12:50:51.687Z,98702.66
2022-08-30T12:53:39.282Z,98698.56
2022-08-30T12:56:12.578Z,98704.47
2022-08-30T12:58:45.109Z,98698.28
2022-08-30T13:01:27.382Z,98690.56
2022-08-30T13:04:26.358Z,98679.69
2022-08-30T13:07:03.010Z,98685.06
2022-08-30T13:09:35.903Z,98685.00
2022-08-30T13:12:09.770Z,98681.63
2022-08-30T13:14:42.280Z,98672.72
2022-08-30T13:17:12.027Z,98669.75
2022-08-30T13:19:43.462Z,98676.91
2022-08-30T13:22:28.974Z,98674.88
2022-08-30T13:24:56.313Z,98675.50
2022-08-30T13:27:23.758Z,98666.50
2022-08-30T13:29:50.823Z,98659.75
2022-08-30T13:32:17.651Z,98654.25
2022-08-30T13:34:44.754Z,98658.41
2022-08-30T13:40:05.123Z,98649.97
2022-08-30T13:42:32.219Z,98651.69
2022-08-30T13:44:59.003Z,98646.16
2022-08-30T13:47:34.449Z,98655.63
2022-08-30T13:50:01.172Z,98641.53
2022-08-30T13:52:27.775Z,98645.16
2022-08-30T13:54:56.446Z,98643.00
2022-08-30T14:00:19.203Z,98634.25
2022-08-30T14:02:54.186Z,98643.59
2022-08-30T14:05:48.316Z,98639.31
2022-08-30T14:11:18.430Z,98647.53
2022-08-30T14:16:34.089Z,98634.31
2022-08-30T14:19:01.825Z,98637.53
2022-08-30T14:21:28.567Z,98628.66
2022-08-30T14:23:56.660Z,98628.09
2022-08-30T14:26:33.672Z,98624.59
2022-08-30T14:29:03.538Z,98617.69
2022-08-30T14:31:32.885Z,98620.56
2022-08-30T14:34:01.825Z,98622.84
2022-08-30T14:36:30.414Z,98622.72
2022-08-30T14:38:58.209Z,98618.97
2022-08-30T14:41:24.684Z,98619.84
2022-08-30T14:43:51.898Z,98603.44
2022-08-30T14:46:18.725Z,98609.69
2022-08-30T14:48:45.291Z,98606.78
2022-08-30T14:51:20.486Z,98612.31
2022-08-30T14:53:47.773Z,98611.78
2022-08-30T14:56:19.427Z,98594.84
2022-08-30T14:58:49.727Z,98597.69
2022-08-30T15:01:16.850Z,98592.91
2022-08-30T15:03:43.528Z,98591.09
2022-08-30T15:06:11.288Z,98574.66
2022-08-30T15:08:38.557Z,98581.69
2022-08-30T15:11:12.619Z,98582.97
2022-08-30T15:13:40.443Z,98581.97
2022-08-30T15:16:20.749Z,98578.28
2022-08-30T15:18:48.184Z,98580.25
2022-08-30T15:21:15.277Z,98571.78
2022-08-30T15:23:44.648Z,98571.28
2022-08-30T15:26:11.075Z,98575.28
2022-08-30T15:28:37.646Z,98572.91
2022-08-30T15:31:08.557Z,98568.91
2022-08-30T15:33:36.816Z,98568.22
2022-08-30T15:36:04.903Z,98573.50
2022-08-30T15:38:32.318Z,98563.66
2022-08-30T15:41:03.473Z,98570.03
2022-08-30T15:43:30.283Z,98569.88
2022-08-30T15:46:17.337Z,98568.78
2022-08-30T15:48:46.021Z,98565.50
2022-08-30T15:51:12.939Z,98566.69
2022-08-30T15:53:39.767Z,98563.59
2022-08-30T15:56:06.649Z,98564.84
2022-08-30T15:58:33.264Z,98560.47
2022-08-30T16:00:59.776Z,98559.38
2022-08-30T16:03:26.301Z,98555.53
2022-08-30T16:05:52.937Z,98554.13
2022-08-30T16:08:19.509Z,98548.38
2022-08-30T16:10:46.092Z,98551.91
2022-08-30T16:13:14.544Z,98554.84
2022-08-30T16:15:41.087Z,98546.78
2022-08-30T16:18:07.550Z,98543.44
2022-08-30T16:20:35.963Z,98549.81
2022-08-30T16:23:02.450Z,98544.72
2022-08-30T16:25:40.717Z,98551.34
2022-08-30T16:28:09.562Z,98540.06
2022-08-30T16:30:36.433Z,98543.06
2022-08-30T16:33:02.917Z,98538.63
2022-08-30T16:35:29.388Z,98544.03
2022-08-30T16:37:55.896Z,98545.91
2022-08-30T16:40:22.443Z,98547.50
2022-08-30T16:42:50.247Z,98544.94
2022-08-30T16:45:16.806Z,98538.09
2022-08-30T16:47:45.684Z,98543.03
2022-08-30T16:50:12.709Z,98542.16
2022-08-30T16:52:44.018Z,98525.94
2022-08-30T16:55:10.901Z,98533.88
2022-08-30T16:57:38.624Z,98531.00
2022-08-30T17:00:13.398Z,98532.09
2022-08-30T17:02:42.844Z,98540.25
2022-08-30T17:05:21.886Z,98538.59
2022-08-30T17:07:49.846Z,98547.44
2022-08-30T17:10:17.079Z,98546.34
2022-08-30T17:12:49.947Z,98545.72
2022-08-30T17:15:16.706Z,98550.06
2022-08-30T17:17:43.409Z,98549.59
2022-08-30T17:20:10.597Z,98555.38
2022-08-30T17:22:37.363Z,98557.97
2022-08-30T17:25:04.423Z,98566.69
2022-08-30T17:27:32.212Z,98562.75
2022-08-30T17:29:58.865Z,98565.59
2022-08-30T17:32:26.458Z,98566.84
2022-08-30T17:34:53.615Z,98568.84
2022-08-30T17:37:20.798Z,98571.09
2022-08-30T17:39:48.242Z,98570.75
2022-08-30T17:42:15.368Z,98575.56
2022-08-30T17:44:42.461Z,98578.78
2022-08-30T17:47:09.568Z,98579.69
2022-08-30T17:49:36.116Z,98585.09
2022-08-30T17:52:05.624Z,98589.19
2022-08-30T17:54:34.191Z,98601.81
2022-08-30T17:57:01.873Z,98591.84
2022-08-30T17:59:31.503Z,98598.09
2022-08-30T18:02:00.082Z,98595.88
2022-08-30T18:04:26.845Z,98592.00
2022-08-30T18:06:54.690Z,98598.16
2022-08-30T18:09:21.567Z,98596.03
2022-08-30T18:11:48.681Z,98607.66
2022-08-30T18:14:15.655Z,98612.03
2022-08-30T18:16:49.645Z,98610.63
2022-08-30T18:19:21.092Z,98615.69
2022-08-30T18:21:47.670Z,98616.78
2022-08-30T18:24:16.467Z,98619.00
2022-08-30T18:26:43.218Z,98626.19
2022-08-30T18:29:10.997Z,98620.00
2022-08-30T18:31:38.217Z,98630.19
2022-08-30T18:34:04.751Z,98632.19
2022-08-30T18:36:31.474Z,98631.69
2022-08-30T18:38:58.221Z,98632.72
2022-08-30T18:41:25.249Z,98633.50
2022-08-30T18:44:05.886Z,98639.13
2022-08-30T18:46:38.598Z,98639.34
2022-08-30T18:49:22.449Z,98642.97
2022-08-30T18:51:50.050Z,98650.59
2022-08-30T18:54:16.665Z,98649.47
2022-08-30T18:56:45.010Z,98647.22
2022-08-30T18:59:11.695Z,98646.47
2022-08-30T19:01:38.349Z,98642.84
2022-08-30T19:04:05.054Z,98640.19
2022-08-30T19:06:31.727Z,98641.22
2022-08-30T19:08:58.337Z,98643.81
2022-08-30T19:11:26.367Z,98650.53
2022-08-30T19:13:52.813Z,98643.50
2022-08-30T19:16:20.313Z,98640.03
2022-08-30T19:18:46.991Z,98635.91
2022-08-30T19:24:00.123Z,98639.16
2022-08-30T19:26:27.534Z,98644.72
2022-08-30T19:28:54.209Z,98641.81
2022-08-30T19:31:20.710Z,98645.00
2022-08-30T19:33:47.435Z,98643.56
2022-08-30T19:36:13.915Z,98649.66
2022-08-30T19:38:44.179Z,98653.59
2022-08-30T19:41:11.237Z,98649.00
2022-08-30T19:43:37.948Z,98653.66
2022-08-30T19:46:04.588Z,98662.47
2022-08-30T19:48:32.829Z,98658.16
2022-08-30T19:51:06.589Z,98662.59
2022-08-30T19:53:34.335Z,98666.94
2022-08-30T19:56:00.862Z,98663.00
2022-08-30T19:58:30.164Z,98670.69
2022-08-30T20:01:00.987Z,98678.22
2022-08-30T20:03:37.421Z,98671.34
2022-08-30T20:06:07.301Z,98676.09
2022-08-30T20:08:34.167Z,98680.25
2022-08-30T20:11:00.872Z,98675.00
2022-08-30T20:13:28.261Z,98684.34
2022-08-30T20:15:57.233Z,98687.06
2022-08-30T20:18:28.812Z,98688.16
2022-08-30T20:20:55.767Z,98687.78
2022-08-30T20:24:33.223Z,98637.47
2022-08-30T20:26:12.195Z,98698.81
2022-08-30T20:28:39.024Z,98700.72
2022-08-30T20:31:06.915Z,98703.63
2022-08-30T20:33:36.425Z,98702.91
2022-08-30T20:36:04.922Z,98710.72
2022-08-30T20:38:31.824Z,98703.41
2022-08-30T20:41:01.075Z,98707.16
2022-08-30T20:43:29.093Z,98699.38
2022-08-30T20:45:56.356Z,98703.69
2022-08-30T20:48:23.944Z,98702.84
2022-08-30T20:50:50.509Z,98702.09
2022-08-30T20:53:17.099Z,98706.25
2022-08-30T20:55:46.023Z,98697.38
2022-08-30T20:58:13.967Z,98700.53
2022-08-30T21:00:41.028Z,98703.69
2022-08-30T21:03:25.880Z,98703.13
2022-08-30T21:05:54.658Z,98702.09
2022-08-30T21:08:21.425Z,98706.72
2022-08-30T21:10:47.892Z,98711.25
2022-08-30T21:13:14.503Z,98708.69
2022-08-30T21:15:45.658Z,98710.88
2022-08-30T21:18:13.628Z,98710.88
2022-08-30T21:20:40.126Z,98706.72
2022-08-30T21:23:06.578Z,98708.25
2022-08-30T21:25:34.020Z,98711.00
2022-08-30T21:28:00.648Z,98711.75
2022-08-30T21:30:27.183Z,98715.72
2022-08-30T21:32:53.825Z,98709.34
2022-08-30T21:35:38.890Z,98720.63
2022-08-30T21:38:07.336Z,98718.31
2022-08-30T21:40:33.850Z,98719.16
2022-08-30T21:43:05.158Z,98721.22
2022-08-30T21:45:32.710Z,98718.25
2022-08-30T21:47:59.224Z,98716.53
2022-08-30T21:50:25.636Z,98713.31
2022-08-30T21:52:52.028Z,98726.47
2022-08-30T21:55:18.735Z,98722.69
2022-08-30T21:57:45.149Z,98723.28
2022-08-30T22:00:18.664Z,98722.44
2022-08-30T22:02:45.443Z,98729.00
2022-08-30T22:05:15.856Z,98723.16
2022-08-30T22:07:42.445Z,98724.09
2022-08-30T22:10:11.058Z,98720.25
2022-08-30T22:12:38.404Z,98728.25
2022-08-30T22:15:08.905Z,98718.78
2022-08-30T22:17:35.373Z,98723.41
2022-08-30T22:20:02.012Z,98730.75
2022-08-30T22:22:28.925Z,98729.44
2022-08-30T22:24:55.417Z,98732.88
2022-08-30T22:27:21.870Z,98728.44
2022-08-30T22:29:48.339Z,98732.13
2022-08-30T22:32:14.911Z,98729.94
2022-08-30T22:34:44.946Z,98731.41
2022-08-30T22:37:11.405Z,98727.25
2022-08-30T22:39:37.892Z,98739.75
2022-08-30T22:42:04.530Z,98734.28
2022-08-30T22:44:31.023Z,98731.50
2022-08-30T22:46:57.466Z,98739.28
2022-08-30T22:49:23.958Z,98738.25
2022-08-30T22:51:50.627Z,98736.97
2022-08-30T22:54:17.467Z,98736.34
2022-08-30T22:56:43.999Z,98739.66
2022-08-30T22:59:10.505Z,98736.53
2022-08-30T23:01:40.256Z,98730.56
2022-08-30T23:04:08.070Z,98736.25
2022-08-30T23:06:35.496Z,98741.63
2022-08-30T23:09:02.230Z,98738.25
2022-08-30T23:11:29.492Z,98741.25
2022-08-30T23:13:58.345Z,98742.38
2022-08-30T23:16:24.897Z,98737.63
2022-08-30T23:18:51.479Z,98734.00
2022-08-30T23:21:21.728Z,98744.50
2022-08-30T23:24:08.138Z,98742.84
2022-08-30T23:26:54.042Z,98747.50
2022-08-30T23:29:39.051Z,98742.34
2022-08-30T23:32:24.042Z,98749.38
2022-08-30T23:35:08.984Z,98739.75
2022-08-30T23:37:54.109Z,98741.41
2022-08-30T23:40:40.453Z,98750.09
2022-08-30T23:43:26.753Z,98752.03
2022-08-30T23:46:49.376Z,98748.78
2022-08-30T23:49:32.530Z,98751.09
2022-08-30T23:52:17.804Z,98755.91
2022-08-30T23:55:03.550Z,98753.22
2022-08-30T23:57:49.164Z,98754.88
